Terminal Aerodrome Forecast
Issued by NWS

Home | Current Version | Previous Version | Text Only | Print | Product List | Glossary On
Versions: 1 2 3 4 5 6 7 8 9 10 11 12 13
708
FTUS45 KTFX 220548 CCA
TAFBZN
TAF COR
KBZN 220548Z 2206/2312 21012KT P6SM VCSH OVC080
     FM220800 20012G22KT P6SM VCSH BKN080 WS020/23040KT
     FM221600 22014G24KT P6SM BKN090
     FM221800 25020G32KT P6SM BKN070 PROB30 2219/2223 25035G45KT 4SM
      -SHRA OVC040
     FM230700 26009KT P6SM BKN100=

USA.gov is the U.S. government's official web portal to all federal, state and local government web resources and services.